.
WxDataArchive / Data Records for 2007-02-14
2007-02-13 February 2007 2007-02-15

Data Records for Wednesday, 14 February 2007

Time	Temp	Chill	HIndex	Humid	Dewpt	 Wind 	HiWind	WindDir	Rain 	Barom 
-----	----	-----	------	-----	-----	------	------	-------	-----	----- 
00:00	11.6	11.6	11.6	83	7.5	2	9	0	0.00	29.938 
00:05	11.6	11.6	11.6	83	7.5	2	9	22	0.00	29.937 
00:10	11.4	11.4	11.4	83	7.3	2	6	0	0.00	29.929 
00:15	11.4	11.4	11.4	83	7.3	2	6	22	0.00	29.936 
00:20	11.2	11.2	11.2	83	7.1	2	6	0	0.00	29.939 
00:25	11.2	11.2	11.2	83	7.1	2	9	22	0.00	29.939 
00:30	11.2	11.2	11.2	83	7.1	2	6	22	0.00	29.940 
00:35	11.2	11.2	11.2	83	7.1	1	5	45	0.00	29.941 
00:40	11.2	11.2	11.2	83	7.1	2	7	0	0.00	29.940 
00:45	11.2	11.2	11.2	83	7.1	2	9	0	0.00	29.943 
00:50	11.2	11.2	11.2	83	7.1	2	12	0	0.00	29.945 
00:55	11.2	11.2	11.2	83	7.1	3	7	0	0.00	29.950 
01:00	11.2	11.2	11.2	83	7.1	1	5	315	0.00	29.955 
01:05	11.2	11.2	11.2	83	7.1	1	5	338	0.00	29.959 
01:10	11.2	11.2	11.2	83	7.1	2	6	22	0.00	29.961 
01:15	11.2	11.2	11.2	83	7.1	2	6	0	0.00	29.965 
01:20	11.2	11.2	11.2	82	6.8	1	4	0	0.00	29.967 
01:25	11.2	11.2	11.2	82	6.8	2	7	338	0.00	29.969 
01:30	11.4	11.4	11.4	82	7.0	1	5	22	0.00	29.965 
01:35	11.4	11.4	11.4	82	7.0	2	9	22	0.00	29.961 
01:40	11.4	11.4	11.4	83	7.3	1	4	0	0.00	29.960 
01:45	11.4	11.4	11.4	83	7.3	2	6	22	0.00	29.958 
01:50	11.4	11.4	11.4	83	7.3	2	6	338	0.00	29.960 
01:55	11.4	11.4	11.4	83	7.3	2	7	22	0.00	29.959 
02:00	11.6	11.6	11.6	83	7.5	1	7	22	0.00	29.956 
02:05	11.6	11.6	11.6	83	7.5	1	5	22	0.00	29.955 
02:10	11.6	11.6	11.6	83	7.5	2	5	22	0.00	29.956 
02:15	11.6	11.6	11.6	83	7.5	2	6	22	0.00	29.954 
02:20	11.6	11.6	11.6	83	7.5	2	7	0	0.00	29.952 
02:25	11.6	11.6	11.6	83	7.5	2	5	0	0.00	29.952 
02:30	11.6	11.6	11.6	83	7.5	2	9	22	0.00	29.951 
02:35	11.6	11.6	11.6	83	7.5	1	4	45	0.00	29.950 
02:40	11.6	11.6	11.6	83	7.5	2	5	338	0.00	29.949 
02:45	11.6	11.6	11.6	83	7.5	2	5	45	0.00	29.948 
02:50	11.7	11.7	11.7	83	7.6	2	6	0	0.00	29.951 
02:55	11.7	11.7	11.7	83	7.6	2	9	0	0.00	29.952 
03:00	11.7	11.7	11.7	83	7.6	1	4	0	0.00	29.954 
03:05	11.9	11.9	11.9	83	7.8	2	7	0	0.00	29.953 
03:10	11.9	11.9	11.9	83	7.8	1	6	22	0.00	29.955 
03:15	11.9	11.9	11.9	83	7.8	1	4	22	0.00	29.954 
03:20	12.1	12.1	12.1	83	7.9	1	5	45	0.00	29.955 
03:25	12.1	12.1	12.1	83	7.9	2	9	22	0.00	29.959 
03:30	12.3	12.3	12.3	83	8.1	1	6	0	0.00	29.962 
03:35	12.3	12.3	12.3	83	8.1	2	12	338	0.00	29.963 
03:40	12.4	12.4	12.4	83	8.2	1	3	0	0.00	29.966 
03:45	12.4	12.4	12.4	83	8.2	1	5	22	0.00	29.969 
03:50	12.4	12.4	12.4	82	8.0	2	6	0	0.00	29.970 
03:55	12.6	12.6	12.6	82	8.2	1	4	0	0.00	29.972 
04:00	12.6	12.6	12.6	82	8.2	1	4	0	0.00	29.972 
04:05	12.6	12.6	12.6	82	8.2	2	7	22	0.00	29.972 
04:10	12.8	12.8	12.8	82	8.4	2	6	22	0.00	29.973 
04:15	12.8	12.8	12.8	82	8.4	2	6	0	0.00	29.976 
04:20	12.9	12.9	12.9	81	8.2	2	10	22	0.00	29.978 
04:25	12.9	12.9	12.9	81	8.2	2	10	22	0.00	29.980 
04:30	12.9	12.9	12.9	81	8.2	1	4	338	0.00	29.983 
04:35	12.9	12.9	12.9	81	8.2	1	6	22	0.00	29.984 
04:40	12.9	12.9	12.9	81	8.2	2	5	22	0.00	29.986 
04:45	12.9	12.9	12.9	81	8.2	2	7	22	0.00	29.989 
04:50	12.9	12.9	12.9	81	8.2	2	9	0	0.00	29.990 
04:55	12.9	12.9	12.9	81	8.2	2	6	0	0.00	29.992 
05:00	13.1	13.1	13.1	81	8.4	2	6	338	0.00	29.997 
05:05	13.1	13.1	13.1	81	8.4	2	9	0	0.00	29.999 
05:10	13.1	13.1	13.1	81	8.4	1	4	0	0.00	30.002 
05:15	13.1	13.1	13.1	81	8.4	2	7	338	0.00	30.003 
05:20	13.1	13.1	13.1	81	8.4	2	7	0	0.00	30.006 
05:25	13.3	13.3	13.3	81	8.6	1	5	338	0.00	30.009 
05:30	13.3	13.3	13.3	81	8.6	2	6	338	0.00	30.013 
05:35	13.3	13.3	13.3	80	8.3	2	5	338	0.00	30.016 
05:40	13.3	13.3	13.3	81	8.6	1	3	0	0.00	30.016 
05:45	13.3	13.3	13.3	81	8.6	1	4	0	0.00	30.019 
05:50	13.1	13.1	13.1	81	8.4	2	5	0	0.00	30.019 
05:55	12.9	12.9	12.9	80	7.9	1	4	0	0.00	30.019 
06:00	12.9	12.9	12.9	80	7.9	2	7	338	0.00	30.021 
06:05	12.8	12.8	12.8	80	7.8	1	5	338	0.00	30.023 
06:10	12.6	12.6	12.6	80	7.6	1	3	338	0.00	30.026 
06:15	12.6	12.6	12.6	79	7.3	1	5	315	0.00	30.029 
06:20	12.6	12.6	12.6	79	7.3	2	6	338	0.00	30.030 
06:25	12.4	12.4	12.4	79	7.2	1	5	0	0.00	30.034 
06:30	12.4	12.4	12.4	79	7.2	2	6	0	0.00	30.036 
06:35	12.3	12.3	12.3	79	7.1	1	4	315	0.00	30.036 
06:40	12.1	12.1	12.1	78	6.6	2	7	338	0.00	30.037 
06:45	11.9	11.9	11.9	78	6.4	2	4	338	0.00	30.043 
06:50	11.7	11.7	11.7	78	6.2	1	4	338	0.00	30.045 
06:55	11.6	11.6	11.6	78	6.1	2	5	315	0.00	30.046 
07:00	11.6	11.6	11.6	78	6.1	2	6	0	0.00	30.048 
07:05	11.4	11.4	11.4	78	5.9	1	4	338	0.00	30.049 
07:10	11.2	11.2	11.2	78	5.7	1	6	0	0.00	30.051 
07:15	11.1	11.1	11.1	78	5.6	1	4	338	0.00	30.050 
07:20	11.1	11.1	11.1	78	5.6	1	5	22	0.00	30.051 
07:25	10.9	10.9	10.9	78	5.4	1	4	338	0.00	30.052 
07:30	10.9	10.9	10.9	78	5.4	1	4	292	0.00	30.054 
07:35	10.7	10.7	10.7	78	5.2	1	2	315	0.00	30.060 
07:40	10.7	10.7	10.7	78	5.2	1	6	315	0.00	30.061 
07:45	10.7	10.7	10.7	78	5.2	2	5	338	0.00	30.065 
07:50	10.7	10.7	10.7	78	5.2	1	4	338	0.00	30.068 
07:55	10.5	10.5	10.5	78	5.0	1	5	0	0.00	30.069 
08:00	10.5	10.5	10.5	78	5.0	1	5	0	0.00	30.070 
08:05	10.5	10.5	10.5	78	5.0	1	4	315	0.00	30.073 
08:10	10.5	10.5	10.5	78	5.0	1	6	0	0.00	30.075 
08:15	10.5	10.5	10.5	78	5.0	1	5	0	0.00	30.079 
08:20	10.7	10.7	10.7	78	5.2	1	6	0	0.00	30.081 
08:25	10.7	10.7	10.7	78	5.2	1	4	0	0.00	30.083 
08:30	10.9	10.9	10.9	77	5.1	1	6	338	0.00	30.084 
08:35	11.1	11.1	11.1	77	5.3	1	5	338	0.00	30.085 
08:40	11.2	11.2	11.2	77	5.4	1	3	0	0.00	30.086 
08:45	11.4	11.4	11.4	77	5.6	1	4	0	0.00	30.084 
08:50	11.6	11.6	11.6	76	5.5	1	4	0	0.00	30.085 
08:55	11.9	11.9	11.9	76	5.8	1	4	338	0.00	30.088 
09:00	12.1	12.1	12.1	76	6.0	1	4	338	0.00	30.097 
09:05	12.1	12.1	12.1	75	5.7	2	7	338	0.00	30.095 
09:10	12.3	12.3	12.3	75	5.9	2	6	22	0.00	30.096 
09:15	12.3	12.3	12.3	75	5.9	2	7	315	0.00	30.095 
09:20	12.4	12.4	12.4	75	6.0	2	7	338	0.00	30.097 
09:25	12.4	12.4	12.4	74	5.7	2	5	0	0.00	30.094 
09:30	12.6	12.6	12.6	74	5.9	2	6	0	0.00	30.096 
09:35	12.8	12.8	12.8	74	6.1	2	7	0	0.00	30.097 
09:40	12.9	12.9	12.9	73	5.9	2	5	315	0.00	30.099 
09:45	12.9	12.9	12.9	73	5.9	2	9	315	0.00	30.101 
09:50	13.1	13.1	13.1	73	6.1	2	6	338	0.00	30.100 
09:55	13.3	13.3	13.3	73	6.3	1	5	0	0.00	30.101 
10:00	13.5	13.5	13.5	73	6.5	2	4	338	0.00	30.101 
10:05	13.5	13.5	13.5	72	6.2	2	6	338	0.00	30.103 
10:10	13.5	13.5	13.5	72	6.2	3	7	0	0.00	30.106 
10:15	13.3	13.3	13.3	71	5.7	3	7	338	0.00	30.112 
10:20	13.6	13.6	13.6	72	6.3	1	6	0	0.00	30.112 
10:25	13.8	13.8	13.8	71	6.2	2	4	315	0.00	30.115 
10:30	13.6	13.6	13.6	70	5.7	3	6	315	0.00	30.119 
10:35	13.6	13.6	13.6	71	6.0	2	6	338	0.00	30.123 
10:40	13.8	13.8	13.8	71	6.2	2	9	22	0.00	30.124 
10:45	14.0	14.0	14.0	71	6.4	2	5	0	0.00	30.125 
10:50	14.0	14.0	14.0	70	6.0	2	5	338	0.00	30.127 
10:55	13.8	13.8	13.8	70	5.9	2	10	292	0.00	30.129 
11:00	14.0	14.0	14.0	71	6.4	1	5	22	0.00	30.130 
11:05	14.0	14.0	14.0	69	5.7	3	7	0	0.00	30.132 
11:10	14.0	14.0	14.0	69	5.7	2	4	22	0.00	30.132 
11:15	14.0	14.0	14.0	69	5.7	2	6	0	0.00	30.135 
11:20	14.0	14.0	14.0	69	5.7	2	5	315	0.00	30.134 
11:25	14.3	14.3	14.3	69	6.0	2	5	315	0.00	30.132 
11:30	14.4	14.4	14.4	68	5.8	2	5	338	0.00	30.134 
11:35	14.6	14.6	14.6	68	6.0	2	4	0	0.00	30.137 
11:40	14.6	14.6	14.6	68	6.0	1	3	338	0.00	30.141 
11:45	14.8	14.8	14.8	68	6.2	2	5	315	0.00	30.141 
11:50	14.8	14.8	14.8	67	5.9	2	11	22	0.00	30.142 
11:55	15.1	15.1	15.1	67	6.1	1	3	22	0.00	30.145 
12:00	15.4	15.4	15.4	68	6.8	1	6	338	0.00	30.146 
12:05	15.6	15.6	15.6	67	6.6	2	5	338	0.00	30.147 
12:10	15.6	15.6	15.6	67	6.6	1	4	338	0.00	30.147 
12:15	15.7	15.7	15.7	66	6.4	1	4	338	0.00	30.149 
12:20	15.6	15.6	15.6	66	6.3	2	4	22	0.00	30.149 
12:25	15.6	15.6	15.6	66	6.3	2	6	338	0.00	30.147 
12:30	15.7	15.7	15.7	66	6.4	2	6	315	0.00	30.151 
12:35	15.9	15.9	15.9	67	6.9	1	4	315	0.00	30.153 
12:40	15.9	15.9	15.9	66	6.6	2	8	338	0.00	30.156 
12:45	15.9	15.9	15.9	65	6.2	2	6	315	0.00	30.158 
12:50	16.1	16.1	16.1	65	6.4	2	7	292	0.00	30.159 
12:55	16.1	16.1	16.1	65	6.4	2	6	315	0.00	30.157 
13:00	16.2	16.2	16.2	65	6.5	1	5	315	0.00	30.151 
13:05	16.4	16.4	16.4	65	6.7	1	4	22	0.00	30.145 
13:10	16.2	16.2	16.2	64	6.2	2	5	338	0.00	30.143 
13:15	16.1	16.1	16.1	64	6.1	3	11	315	0.00	30.143 
13:20	16.1	16.1	16.1	63	5.8	2	6	0	0.00	30.142 
13:25	16.4	16.4	16.4	63	6.0	2	9	315	0.00	30.140 
13:30	16.4	16.4	16.4	63	6.0	2	6	292	0.00	30.139 
13:35	16.7	16.7	16.7	62	6.0	1	5	0	0.00	30.137 
13:40	16.5	16.5	16.5	62	5.8	2	5	315	0.00	30.132 
13:45	16.7	16.7	16.7	62	6.0	2	4	315	0.00	30.139 
13:50	16.9	16.9	16.9	62	6.2	2	6	338	0.00	30.138 
13:55	17.0	17.0	17.0	62	6.3	1	3	315	0.00	30.139 
14:00	17.3	17.3	17.3	61	6.2	1	4	338	0.00	30.142 
14:05	17.5	17.5	17.5	59	5.6	2	6	292	0.00	30.141 
14:10	17.7	17.7	17.7	59	5.8	1	3	315	0.00	30.142 
14:15	17.5	17.5	17.5	58	5.3	2	9	0	0.00	30.143 
14:20	17.7	17.7	17.7	57	5.1	1	7	338	0.00	30.143 
14:25	17.8	17.8	17.8	58	5.6	1	4	338	0.00	30.142 
14:30	18.0	18.0	18.0	59	6.1	2	6	270	0.00	30.143 
14:35	18.0	18.0	18.0	57	5.4	2	5	338	0.00	30.143 
14:40	17.8	17.8	17.8	55	4.4	2	5	338	0.00	30.145 
14:45	17.8	17.8	17.8	54	4.0	1	4	338	0.00	30.148 
14:50	17.8	17.8	17.8	54	4.0	2	5	315	0.00	30.147 
14:55	17.8	17.8	17.8	55	4.4	2	4	292	0.00	30.152 
15:00	17.5	17.5	17.5	56	4.5	2	7	315	0.00	30.153 
15:05	17.5	17.5	17.5	56	4.5	2	6	315	0.00	30.155 
15:10	17.3	17.3	17.3	56	4.3	2	5	315	0.00	30.155 
15:15	17.3	17.3	17.3	55	3.9	2	10	315	0.00	30.156 
15:20	17.3	17.3	17.3	55	3.9	2	5	315	0.00	30.156 
15:25	17.5	17.5	17.5	54	3.7	1	4	315	0.00	30.156 
15:30	17.5	17.5	17.5	53	3.3	1	5	338	0.00	30.157 
15:35	17.5	17.5	17.5	54	3.7	2	6	292	0.00	30.157 
15:40	17.3	17.3	17.3	53	3.1	3	6	270	0.00	30.157 
15:45	17.3	17.3	17.3	52	2.7	2	6	292	0.00	30.156 
15:50	17.2	17.2	17.2	52	2.6	2	9	292	0.00	30.156 
15:55	17.3	17.3	17.3	52	2.7	2	6	338	0.00	30.156 
16:00	17.3	17.3	17.3	52	2.7	1	3	315	0.00	30.155 
16:05	17.3	17.3	17.3	50	1.9	2	4	315	0.00	30.155 
16:10	17.0	17.0	17.0	51	2.0	2	7	315	0.00	30.155 
16:15	16.9	16.9	16.9	51	1.9	1	3	315	0.00	30.155 
16:20	16.7	16.7	16.7	51	1.8	3	6	292	0.00	30.156 
16:25	16.7	16.7	16.7	51	1.8	2	5	292	0.00	30.156 
16:30	16.7	16.7	16.7	50	1.3	2	6	315	0.00	30.157 
16:35	16.4	16.4	16.4	50	1.1	2	6	292	0.00	30.157 
16:40	16.4	16.4	16.4	50	1.1	2	6	315	0.00	30.160 
16:45	16.1	16.1	16.1	49	0.3	3	6	292	0.00	30.160 
16:50	15.9	15.9	15.9	50	0.6	2	7	315	0.00	30.162 
16:55	15.9	15.9	15.9	50	0.6	2	5	270	0.00	30.162 
17:00	15.7	15.7	15.7	50	0.4	2	7	315	0.00	30.162 
17:05	15.7	15.7	15.7	50	0.4	2	5	315	0.00	30.162 
17:10	15.6	15.6	15.6	51	0.7	1	6	270	0.00	30.162 
17:15	15.4	15.4	15.4	50	0.1	2	5	315	0.00	30.166 
17:20	15.2	15.2	15.2	50	-0.1	1	5	315	0.00	30.168 
17:25	15.2	15.2	15.2	49	-0.5	1	4	338	0.00	30.169 
17:30	15.1	15.1	15.1	49	-0.6	1	3	338	0.00	30.172 
17:35	14.9	14.9	14.9	50	-0.3	1	6	270	0.00	30.172 
17:40	14.8	14.8	14.8	49	-0.9	1	4	338	0.00	30.173 
17:45	14.8	14.8	14.8	49	-0.9	1	3	270	0.00	30.172 
17:50	14.6	14.6	14.6	50	-0.6	0	1	270	0.00	30.173 
17:55	14.4	14.4	14.4	51	-0.4	0	2	270	0.00	30.174 
18:00	14.1	14.1	14.1	51	-0.7	0	1	270	0.00	30.175 
18:05	14.0	14.0	14.0	51	-0.8	0	2	270	0.00	30.176 
18:10	13.6	13.6	13.6	51	-1.1	0	2	270	0.00	30.176 
18:15	13.5	13.5	13.5	51	-1.2	0	2	270	0.00	30.178 
18:20	13.1	13.1	13.1	51	-1.6	0	1	270	0.00	30.182 
18:25	12.9	12.9	12.9	52	-1.4	0	1	270	0.00	30.187 
18:30	12.8	12.8	12.8	50	-2.3	0	1	270	0.00	30.186 
18:35	12.4	12.4	12.4	51	-2.2	0	1	270	0.00	30.186 
18:40	12.3	12.3	12.3	51	-2.3	0	1	270	0.00	30.188 
18:45	11.9	11.9	11.9	52	-2.3	0	0	---	0.00	30.191 
18:50	11.6	11.6	11.6	52	-2.6	0	1	270	0.00	30.192 
18:55	11.4	11.4	11.4	52	-2.8	0	1	270	0.00	30.193 
19:00	11.4	11.4	11.4	52	-2.8	0	1	270	0.00	30.195 
19:05	11.2	11.2	11.2	53	-2.6	0	0	---	0.00	30.196 
19:10	11.1	11.1	11.1	53	-2.6	0	1	270	0.00	30.194 
19:15	10.9	10.9	10.9	54	-2.4	0	1	270	0.00	30.195 
19:20	10.7	10.7	10.7	54	-2.6	0	0	---	0.00	30.195 
19:25	10.4	10.4	10.4	54	-2.9	0	0	---	0.00	30.196 
19:30	10.0	10.0	10.0	55	-2.9	0	0	---	0.00	30.198 
19:35	9.9	9.9	9.9	55	-3.0	0	0	---	0.00	30.198 
19:40	9.3	9.3	9.3	56	-3.2	0	0	---	0.00	30.198 
19:45	9.0	9.0	9.0	58	-2.7	0	0	---	0.00	30.199 
19:50	8.4	8.4	8.4	60	-2.6	0	0	---	0.00	30.199 
19:55	7.9	7.9	7.9	62	-2.4	0	0	---	0.00	30.201 
20:00	7.2	7.2	7.2	62	-3.0	0	0	---	0.00	30.201 
20:05	6.7	6.7	6.7	62	-3.5	0	0	---	0.00	30.202 
20:10	6.1	6.1	6.1	63	-3.8	0	0	---	0.00	30.203 
20:15	5.6	5.6	5.6	64	-3.9	0	0	---	0.00	30.203 
20:20	5.2	5.2	5.2	65	-4.0	0	0	---	0.00	30.205 
20:25	4.7	4.7	4.7	66	-4.1	0	0	---	0.00	30.204 
20:30	4.3	4.3	4.3	66	-4.5	0	0	---	0.00	30.203 
20:35	3.9	3.9	3.9	68	-4.3	0	0	---	0.00	30.203 
20:40	3.5	3.5	3.5	68	-4.7	0	0	---	0.00	30.203 
20:45	3.2	3.2	3.2	69	-4.6	0	0	---	0.00	30.205 
20:50	3.2	3.2	3.2	70	-4.3	0	0	---	0.00	30.205 
20:55	3.0	3.0	3.0	71	-4.2	0	0	---	0.00	30.205 
21:00	3.0	3.0	3.0	71	-4.2	0	0	---	0.00	30.205 
21:05	3.0	3.0	3.0	72	-3.9	0	0	---	0.00	30.203 
21:10	2.8	2.8	2.8	73	-3.9	0	0	---	0.00	30.203 
21:15	2.8	2.8	2.8	73	-3.9	0	0	---	0.00	30.203 
21:20	2.6	2.6	2.6	73	-4.0	0	0	---	0.00	30.203 
21:25	2.4	2.4	2.4	73	-4.2	0	0	---	0.00	30.203 
21:30	2.4	2.4	2.4	73	-4.2	0	0	---	0.00	30.203 
21:35	2.4	2.4	2.4	74	-4.0	0	0	---	0.00	30.204 
21:40	2.4	2.4	2.4	74	-4.0	0	0	---	0.00	30.204 
21:45	2.4	2.4	2.4	74	-4.0	0	0	---	0.00	30.205 
21:50	2.2	2.2	2.2	74	-4.2	0	0	---	0.00	30.204 
21:55	2.2	2.2	2.2	74	-4.2	0	0	---	0.00	30.204 
22:00	2.2	2.2	2.2	74	-4.2	0	0	---	0.00	30.205 
22:05	2.0	2.0	2.0	73	-4.6	0	0	---	0.00	30.205 
22:10	1.7	1.7	1.7	73	-4.9	0	0	---	0.00	30.205 
22:15	1.7	1.7	1.7	74	-4.6	0	0	---	0.00	30.206 
22:20	1.8	1.8	1.8	74	-4.5	0	0	---	0.00	30.206 
22:25	1.8	1.8	1.8	74	-4.5	0	0	---	0.00	30.205 
22:30	2.0	2.0	2.0	74	-4.3	0	0	---	0.00	30.207 
22:35	1.8	1.8	1.8	73	-4.8	0	0	---	0.00	30.207 
22:40	1.8	1.8	1.8	74	-4.5	0	0	---	0.00	30.206 
22:45	2.0	2.0	2.0	74	-4.3	0	0	---	0.00	30.206 
22:50	2.0	2.0	2.0	74	-4.3	0	0	---	0.00	30.205 
22:55	2.0	2.0	2.0	73	-4.6	0	0	---	0.00	30.204 
23:00	2.0	2.0	2.0	73	-4.6	0	0	---	0.00	30.203 
23:05	2.0	2.0	2.0	73	-4.6	0	0	---	0.00	30.204 
23:10	2.0	2.0	2.0	73	-4.6	0	0	---	0.00	30.201 
23:15	1.8	1.8	1.8	73	-4.8	0	0	---	0.00	30.203 
23:20	2.0	2.0	2.0	73	-4.6	0	0	---	0.00	30.203 
23:25	2.0	2.0	2.0	73	-4.6	0	0	---	0.00	30.205 
23:30	1.8	1.8	1.8	72	-5.1	0	1	270	0.00	30.205 
23:35	2.0	2.0	2.0	70	-5.5	0	1	270	0.00	30.205 
23:40	2.4	2.4	2.4	69	-5.4	0	1	270	0.00	30.207 
23:45	2.6	2.6	2.6	69	-5.2	0	1	270	0.00	30.205 
23:50	2.8	2.8	2.8	69	-5.0	0	0	---	0.00	30.203 
23:55	3.0	3.0	3.0	69	-4.8	0	0	---	0.00	30.201 

CoCoRaHS
IN-AL-39
A2 Web Hosting
Creative Commons License
GoDaddy
Look for:

loaded 2017-12-12 07:33:17 • last modified 2010-11-18 10:43:29
Privacy PolicyDisclaimer
• wx.awcolley.com is powered by PmWiki v.2002016 •
• all content (unless otherwise noted) © 2017 A W Colley